createdAt,value
2022-09-23T00:01:26.709Z,87.31
2022-09-23T00:03:56.430Z,87.44
2022-09-23T00:06:24.776Z,87.51
2022-09-23T00:08:52.776Z,87.63
2022-09-23T00:11:26.696Z,87.59
2022-09-23T00:13:57.568Z,87.84
2022-09-23T00:16:28.966Z,88.08
2022-09-23T00:18:58.997Z,88.24
2022-09-23T00:21:27.672Z,88.27
2022-09-23T00:23:55.577Z,88.26
2022-09-23T00:26:24.179Z,88.49
2022-09-23T00:28:52.652Z,88.41
2022-09-23T00:31:23.646Z,88.49
2022-09-23T00:33:56.925Z,88.58
2022-09-23T00:36:26.621Z,88.54
2022-09-23T00:38:55.405Z,88.60
2022-09-23T00:41:24.190Z,88.72
2022-09-23T00:43:58.453Z,88.85
2022-09-23T00:46:35.418Z,88.89
2022-09-23T00:49:06.572Z,88.84
2022-09-23T00:51:39.660Z,88.75
2022-09-23T00:54:08.570Z,88.82
2022-09-23T00:56:39.500Z,88.74
2022-09-23T00:59:09.804Z,88.70
2022-09-23T01:01:39.194Z,88.83
2022-09-23T01:04:08.219Z,88.72
2022-09-23T01:06:36.400Z,88.80
2022-09-23T01:09:04.583Z,88.79
2022-09-23T01:11:45.088Z,88.80
2022-09-23T01:14:34.747Z,88.72
2022-09-23T01:17:49.088Z,88.83
2022-09-23T01:20:32.380Z,88.61
2022-09-23T01:23:37.960Z,88.80
2022-09-23T01:26:34.827Z,88.64
2022-09-23T01:29:11.252Z,88.50
2022-09-23T01:31:44.218Z,88.59
2022-09-23T01:34:37.844Z,88.66
2022-09-23T01:37:39.394Z,88.36
2022-09-23T01:40:17.499Z,88.31
2022-09-23T01:42:48.665Z,88.14
2022-09-23T01:45:22.195Z,87.80
2022-09-23T01:48:01.167Z,87.75
2022-09-23T01:50:53.298Z,87.64
2022-09-23T01:53:29.280Z,87.59
2022-09-23T01:56:03.024Z,87.44
2022-09-23T01:58:40.040Z,87.49
2022-09-23T02:02:11.078Z,87.64
2022-09-23T02:04:54.125Z,87.70
2022-09-23T02:07:31.216Z,87.67
2022-09-23T02:10:25.297Z,87.93
2022-09-23T02:13:00.044Z,87.97
2022-09-23T02:15:51.376Z,88.04
2022-09-23T02:18:24.955Z,88.32
2022-09-23T02:20:57.149Z,88.61
2022-09-23T02:23:36.577Z,89.33
2022-09-23T02:26:22.940Z,89.53
2022-09-23T02:28:54.989Z,89.26
2022-09-23T02:31:29.013Z,89.05
2022-09-23T02:34:00.567Z,88.99
2022-09-23T02:36:36.920Z,88.83
2022-09-23T02:39:11.183Z,88.64
2022-09-23T02:41:42.209Z,88.56
2022-09-23T02:44:14.764Z,88.44
2022-09-23T02:46:43.765Z,88.49
2022-09-23T02:49:23.691Z,88.43
2022-09-23T02:51:52.002Z,88.44
2022-09-23T02:54:23.258Z,88.37
2022-09-23T02:56:53.337Z,88.15
2022-09-23T02:59:23.020Z,88.07
2022-09-23T03:02:08.009Z,87.79
2022-09-23T03:04:58.660Z,87.69
2022-09-23T03:07:58.618Z,87.79
2022-09-23T03:10:53.092Z,87.75
2022-09-23T03:14:06.751Z,87.48
2022-09-23T03:16:39.973Z,87.40
2022-09-23T03:19:19.848Z,87.33
2022-09-23T03:22:05.853Z,87.48
2022-09-23T03:24:36.185Z,87.44
2022-09-23T03:27:13.564Z,87.26
2022-09-23T03:29:45.742Z,87.29
2022-09-23T03:32:17.269Z,87.24
2022-09-23T03:34:49.097Z,87.32
2022-09-23T03:37:53.536Z,87.49
2022-09-23T03:40:25.568Z,87.35
2022-09-23T03:42:58.901Z,87.36
2022-09-23T03:45:31.852Z,87.12
2022-09-23T03:48:00.976Z,87.03
2022-09-23T03:50:29.360Z,86.98
2022-09-23T03:52:57.294Z,86.84
2022-09-23T03:55:25.288Z,86.78
2022-09-23T03:57:53.563Z,86.72
2022-09-23T04:00:21.604Z,86.66
2022-09-23T04:02:49.991Z,86.54
2022-09-23T04:05:18.485Z,86.68
2022-09-23T04:07:46.535Z,86.71
2022-09-23T04:10:14.575Z,86.84
2022-09-23T04:12:42.552Z,86.92
2022-09-23T04:15:11.360Z,86.84
2022-09-23T04:17:39.236Z,86.92
2022-09-23T04:20:07.449Z,86.96
2022-09-23T04:22:35.494Z,87.12
2022-09-23T04:25:03.522Z,87.06
2022-09-23T04:27:36.905Z,87.14
2022-09-23T04:30:08.430Z,87.14
2022-09-23T04:32:38.087Z,87.18
2022-09-23T04:35:07.226Z,87.10
2022-09-23T04:37:35.159Z,87.27
2022-09-23T04:40:03.999Z,87.33
2022-09-23T04:42:32.296Z,87.49
2022-09-23T04:45:00.595Z,87.51
2022-09-23T04:47:28.605Z,87.64
2022-09-23T04:49:59.718Z,87.63
2022-09-23T04:52:30.256Z,87.73
2022-09-23T04:54:58.262Z,87.77
2022-09-23T04:57:26.297Z,87.77
2022-09-23T04:59:57.059Z,87.89
2022-09-23T05:02:25.519Z,87.96
2022-09-23T05:04:53.459Z,87.90
2022-09-23T05:07:21.483Z,87.99
2022-09-23T05:09:49.796Z,88.01
2022-09-23T05:12:17.946Z,87.84
2022-09-23T05:14:45.896Z,87.88
2022-09-23T05:17:14.919Z,87.88
2022-09-23T05:19:42.891Z,87.73
2022-09-23T05:22:10.760Z,87.73
2022-09-23T05:24:38.744Z,87.79
2022-09-23T05:27:07.906Z,87.72
2022-09-23T05:29:36.229Z,87.66
2022-09-23T05:32:05.088Z,87.63
2022-09-23T05:34:33.053Z,87.30
2022-09-23T05:37:01.212Z,87.24
2022-09-23T05:39:29.609Z,87.29
2022-09-23T05:42:00.206Z,87.26
2022-09-23T05:44:30.913Z,86.74
2022-09-23T05:47:01.139Z,86.44
2022-09-23T05:49:48.305Z,86.69
2022-09-23T05:52:17.514Z,86.74
2022-09-23T05:54:45.616Z,86.64
2022-09-23T05:57:13.826Z,86.66
2022-09-23T05:59:42.680Z,86.48
2022-09-23T06:02:10.777Z,86.29
2022-09-23T06:04:38.795Z,86.25
2022-09-23T06:07:07.252Z,85.93
2022-09-23T06:09:36.673Z,85.89
2022-09-23T06:12:07.085Z,86.01
2022-09-23T06:14:37.814Z,85.79
2022-09-23T06:17:05.909Z,85.38
2022-09-23T06:19:33.928Z,85.36
2022-09-23T06:22:03.702Z,85.10
2022-09-23T06:24:32.055Z,85.16
2022-09-23T06:27:03.131Z,85.15
2022-09-23T06:29:33.328Z,84.83
2022-09-23T06:32:01.838Z,84.84
2022-09-23T06:34:31.330Z,84.90
2022-09-23T06:37:14.840Z,84.75
2022-09-23T06:39:46.838Z,84.88
2022-09-23T06:42:20.603Z,85.10
2022-09-23T06:44:49.228Z,84.87
2022-09-23T06:47:17.350Z,84.61
2022-09-23T06:49:48.141Z,84.67
2022-09-23T06:52:16.113Z,84.51
2022-09-23T06:54:44.168Z,84.41
2022-09-23T06:57:12.218Z,84.68
2022-09-23T06:59:41.888Z,84.56
2022-09-23T07:02:10.399Z,84.33
2022-09-23T07:04:38.343Z,84.36
2022-09-23T07:07:06.243Z,84.35
2022-09-23T07:09:34.158Z,84.31
2022-09-23T07:12:02.338Z,83.81
2022-09-23T07:14:30.319Z,83.48
2022-09-23T07:17:00.010Z,82.91
2022-09-23T07:19:27.836Z,82.60
2022-09-23T07:21:55.777Z,82.87
2022-09-23T07:24:23.713Z,83.10
2022-09-23T07:26:51.672Z,82.89
2022-09-23T07:29:19.732Z,82.20
2022-09-23T07:31:47.801Z,80.79
2022-09-23T07:34:15.791Z,80.90
2022-09-23T07:36:44.040Z,81.55
2022-09-23T07:39:12.623Z,81.53
2022-09-23T07:41:44.624Z,80.52
2022-09-23T07:44:12.943Z,79.78
2022-09-23T07:46:41.284Z,79.98
2022-09-23T07:49:10.744Z,79.49
2022-09-23T07:51:40.129Z,78.93
2022-09-23T07:54:12.818Z,79.07
2022-09-23T07:56:41.343Z,79.05
2022-09-23T07:59:15.552Z,79.00
2022-09-23T08:01:46.708Z,78.85
2022-09-23T08:04:18.323Z,78.65
2022-09-23T08:06:49.274Z,78.42
2022-09-23T08:09:19.285Z,78.13
2022-09-23T08:11:47.770Z,78.05
2022-09-23T08:14:17.989Z,77.66
2022-09-23T08:16:47.776Z,77.02
2022-09-23T08:19:16.461Z,75.79
2022-09-23T08:21:47.648Z,75.19
2022-09-23T08:24:19.084Z,75.49
2022-09-23T08:26:48.508Z,75.83
2022-09-23T08:29:18.881Z,75.93
2022-09-23T08:31:47.120Z,75.33
2022-09-23T08:34:16.402Z,74.87
2022-09-23T08:36:44.986Z,74.24
2022-09-23T08:39:18.582Z,73.97
2022-09-23T08:42:02.096Z,73.83
2022-09-23T08:45:05.032Z,72.61
2022-09-23T08:47:49.867Z,72.00
2022-09-23T08:50:21.649Z,70.65
2022-09-23T08:52:56.148Z,67.92
2022-09-23T08:55:34.785Z,67.77
2022-09-23T08:58:25.676Z,68.49
2022-09-23T09:01:35.164Z,69.26
2022-09-23T09:04:24.239Z,70.17
2022-09-23T09:07:34.856Z,69.44
2022-09-23T09:10:03.644Z,68.03
2022-09-23T09:12:54.151Z,68.26
2022-09-23T09:15:25.010Z,68.96
2022-09-23T09:18:12.383Z,68.39
2022-09-23T09:20:51.733Z,67.26
2022-09-23T09:23:22.809Z,67.51
2022-09-23T09:25:53.091Z,65.95
2022-09-23T09:28:38.149Z,63.48
2022-09-23T09:31:38.682Z,64.08
2022-09-23T09:34:12.083Z,64.96
2022-09-23T09:36:47.282Z,64.91
2022-09-23T09:39:16.271Z,64.92
2022-09-23T09:41:50.367Z,65.23
2022-09-23T09:44:47.757Z,65.39
2022-09-23T09:47:46.715Z,63.70
2022-09-23T09:50:21.796Z,61.91
2022-09-23T09:52:49.665Z,62.28
2022-09-23T09:55:29.237Z,63.79
2022-09-23T09:58:03.271Z,64.05
2022-09-23T10:00:35.682Z,62.64
2022-09-23T10:03:13.352Z,62.46
2022-09-23T10:05:43.926Z,62.88
2022-09-23T10:08:35.662Z,63.84
2022-09-23T10:11:17.135Z,63.75
2022-09-23T10:14:13.279Z,64.05
2022-09-23T10:16:44.003Z,64.15
2022-09-23T10:19:34.625Z,63.28
2022-09-23T10:22:08.945Z,62.71
2022-09-23T10:24:37.047Z,63.11
2022-09-23T10:27:12.041Z,64.66
2022-09-23T10:29:50.297Z,64.86
2022-09-23T10:32:27.113Z,65.51
2022-09-23T10:35:08.971Z,65.96
2022-09-23T10:37:41.918Z,65.94
2022-09-23T10:40:38.666Z,63.85
2022-09-23T10:44:01.372Z,62.41
2022-09-23T10:46:39.598Z,63.40
2022-09-23T10:49:54.792Z,62.97
2022-09-23T10:52:22.695Z,63.27
2022-09-23T10:55:12.212Z,62.33
2022-09-23T10:57:54.330Z,61.11
2022-09-23T11:00:42.980Z,60.97
2022-09-23T11:03:20.012Z,61.23
2022-09-23T11:06:21.758Z,61.97
2022-09-23T11:08:51.111Z,61.93
2022-09-23T11:11:51.319Z,61.98
2022-09-23T11:14:43.606Z,62.17
2022-09-23T11:17:23.658Z,61.41
2022-09-23T11:20:05.382Z,60.14
2022-09-23T11:22:53.298Z,58.22
2022-09-23T11:25:36.628Z,57.59
2022-09-23T11:28:21.081Z,58.39
2022-09-23T11:31:07.379Z,59.21
2022-09-23T11:34:01.826Z,58.73
2022-09-23T11:36:34.458Z,58.84
2022-09-23T11:39:13.146Z,59.27
2022-09-23T11:41:43.505Z,58.97
2022-09-23T11:44:20.127Z,58.38
2022-09-23T11:47:02.518Z,59.50
2022-09-23T11:49:51.725Z,60.13
2022-09-23T11:52:53.214Z,59.47
2022-09-23T11:55:27.610Z,59.33
2022-09-23T11:58:01.980Z,60.79
2022-09-23T12:00:36.671Z,59.91
2022-09-23T12:03:32.984Z,58.79
2022-09-23T12:06:09.320Z,58.14
2022-09-23T12:08:37.573Z,57.60
2022-09-23T12:11:26.024Z,57.87
2022-09-23T12:14:01.369Z,57.33
2022-09-23T12:16:45.357Z,57.84
2022-09-23T12:19:28.637Z,57.49
2022-09-23T12:21:59.503Z,57.78
2022-09-23T12:24:27.545Z,58.20
2022-09-23T12:27:00.204Z,56.80
2022-09-23T12:29:32.207Z,56.40
2022-09-23T12:32:01.044Z,56.53
2022-09-23T12:34:38.199Z,55.01
2022-09-23T12:37:06.899Z,56.87
2022-09-23T12:39:38.787Z,58.01
2022-09-23T12:42:17.180Z,56.88
2022-09-23T12:44:47.906Z,56.03
2022-09-23T12:47:25.148Z,54.45
2022-09-23T12:49:54.530Z,54.04
2022-09-23T12:52:31.599Z,54.16
2022-09-23T12:55:24.439Z,53.29
2022-09-23T12:57:52.487Z,52.92
2022-09-23T13:00:20.399Z,53.38
2022-09-23T13:03:08.313Z,53.64
2022-09-23T13:06:05.648Z,53.79
2022-09-23T13:08:39.122Z,54.00
2022-09-23T13:11:27.626Z,53.89
2022-09-23T13:14:00.091Z,53.85
2022-09-23T13:16:40.023Z,54.07
2022-09-23T13:19:16.796Z,54.83
2022-09-23T13:21:44.927Z,55.25
2022-09-23T13:24:12.877Z,55.11
2022-09-23T13:26:46.666Z,54.53
2022-09-23T13:29:26.806Z,54.66
2022-09-23T13:31:58.173Z,54.66
2022-09-23T13:34:32.324Z,54.37
2022-09-23T13:37:22.852Z,54.08
2022-09-23T13:39:51.593Z,54.14
2022-09-23T13:42:30.820Z,54.27
2022-09-23T13:45:00.567Z,53.75
2022-09-23T13:47:31.274Z,54.71
2022-09-23T13:49:59.558Z,54.76
2022-09-23T13:52:31.901Z,54.21
2022-09-23T13:54:59.850Z,52.49
2022-09-23T13:57:37.024Z,51.45
2022-09-23T14:00:19.539Z,51.46
2022-09-23T14:02:47.692Z,51.25
2022-09-23T14:05:25.162Z,51.17
2022-09-23T14:07:55.807Z,50.27
2022-09-23T14:10:27.753Z,51.47
2022-09-23T14:12:56.896Z,51.96
2022-09-23T14:15:25.617Z,51.53
2022-09-23T14:18:06.379Z,51.70
2022-09-23T14:20:45.897Z,52.08
2022-09-23T14:23:14.880Z,52.75
2022-09-23T14:25:44.836Z,53.18
2022-09-23T14:28:24.507Z,53.56
2022-09-23T14:30:57.357Z,54.13
2022-09-23T14:33:32.334Z,54.27
2022-09-23T14:36:29.080Z,54.79
2022-09-23T14:39:06.312Z,55.25
2022-09-23T14:41:38.685Z,55.60
2022-09-23T14:44:08.253Z,55.55
2022-09-23T14:46:38.116Z,55.53
2022-09-23T14:49:17.496Z,55.46
2022-09-23T14:51:53.429Z,55.37
2022-09-23T14:54:41.063Z,55.04
2022-09-23T14:57:18.420Z,55.20
2022-09-23T14:59:54.147Z,55.21
2022-09-23T15:02:31.754Z,55.53
2022-09-23T15:05:23.115Z,55.82
2022-09-23T15:07:53.280Z,56.33
2022-09-23T15:10:32.313Z,56.48
2022-09-23T15:13:21.377Z,56.74
2022-09-23T15:15:53.444Z,56.88
2022-09-23T15:18:24.867Z,57.30
2022-09-23T15:21:01.855Z,58.08
2022-09-23T15:23:33.496Z,58.54
2022-09-23T15:26:18.104Z,58.99
2022-09-23T15:28:47.987Z,59.53
2022-09-23T15:31:18.990Z,59.81
2022-09-23T15:33:48.253Z,60.22
2022-09-23T15:36:29.312Z,60.46
2022-09-23T15:39:02.825Z,61.12
2022-09-23T15:41:33.141Z,61.89
2022-09-23T15:44:14.647Z,62.38
2022-09-23T15:46:48.514Z,62.88
2022-09-23T15:49:26.311Z,63.44
2022-09-23T15:51:57.643Z,63.61
2022-09-23T15:54:25.805Z,63.97
2022-09-23T15:56:54.277Z,63.94
2022-09-23T15:59:24.096Z,63.64
2022-09-23T16:01:52.953Z,63.42
2022-09-23T16:04:20.973Z,63.13
2022-09-23T16:06:48.837Z,62.84
2022-09-23T16:09:16.817Z,62.61
2022-09-23T16:11:47.553Z,62.53
2022-09-23T16:14:17.418Z,62.27
2022-09-23T16:16:47.828Z,62.01
2022-09-23T16:19:17.753Z,62.12
2022-09-23T16:21:46.732Z,62.16
2022-09-23T16:24:17.677Z,62.20
2022-09-23T16:26:48.085Z,62.38
2022-09-23T16:29:16.060Z,62.30
2022-09-23T16:31:44.095Z,62.46
2022-09-23T16:34:12.030Z,62.69
2022-09-23T16:36:43.161Z,62.80
2022-09-23T16:39:12.687Z,63.07
2022-09-23T16:41:43.537Z,63.33
2022-09-23T16:44:14.392Z,63.47
2022-09-23T16:46:43.013Z,63.70
2022-09-23T16:49:14.248Z,63.77
2022-09-23T16:51:42.280Z,64.11
2022-09-23T16:54:12.640Z,64.53
2022-09-23T16:56:46.509Z,64.95
2022-09-23T16:59:16.167Z,65.19
2022-09-23T17:02:03.414Z,65.39
2022-09-23T17:04:32.389Z,65.46
2022-09-23T17:07:00.310Z,65.68
2022-09-23T17:09:29.192Z,65.77
2022-09-23T17:12:05.758Z,65.99
2022-09-23T17:14:34.743Z,66.12
2022-09-23T17:17:02.731Z,66.24
2022-09-23T17:19:30.845Z,66.32
2022-09-23T17:21:58.869Z,66.51
2022-09-23T17:24:26.824Z,66.65
2022-09-23T17:26:54.851Z,66.69
2022-09-23T17:29:22.758Z,66.88
2022-09-23T17:31:50.816Z,67.00
2022-09-23T17:34:19.503Z,67.06
2022-09-23T17:36:47.375Z,67.02
2022-09-23T17:39:16.085Z,67.25
2022-09-23T17:41:45.451Z,67.39
2022-09-23T17:44:14.159Z,67.41
2022-09-23T17:46:42.087Z,67.33
2022-09-23T17:49:10.029Z,67.72
2022-09-23T17:51:38.064Z,67.88
2022-09-23T17:54:06.493Z,68.31
2022-09-23T17:56:34.475Z,68.40
2022-09-23T17:59:03.768Z,68.26
2022-09-23T18:01:31.920Z,68.38
2022-09-23T18:04:02.203Z,68.57
2022-09-23T18:06:31.816Z,68.65
2022-09-23T18:09:04.283Z,68.71
2022-09-23T18:11:38.665Z,68.83
2022-09-23T18:14:11.771Z,68.84
2022-09-23T18:16:43.872Z,68.86
2022-09-23T18:19:14.624Z,69.10
2022-09-23T18:21:45.511Z,69.01
2022-09-23T18:27:03.629Z,69.26
2022-09-23T18:29:33.077Z,69.31
2022-09-23T18:32:01.717Z,69.44
2022-09-23T18:34:30.758Z,69.58
2022-09-23T18:36:58.849Z,69.67
2022-09-23T18:39:26.891Z,69.71
2022-09-23T18:41:55.653Z,69.85
2022-09-23T18:44:24.399Z,69.94
2022-09-23T18:46:52.284Z,70.02
2022-09-23T18:49:38.746Z,70.35
2022-09-23T18:52:06.624Z,70.40
2022-09-23T18:54:37.360Z,70.54
2022-09-23T18:57:05.409Z,70.73
2022-09-23T18:59:33.463Z,70.84
2022-09-23T19:02:01.955Z,71.00
2022-09-23T19:04:30.126Z,71.10
2022-09-23T19:06:58.911Z,71.29
2022-09-23T19:09:27.923Z,71.30
2022-09-23T19:11:56.545Z,71.44
2022-09-23T19:14:24.647Z,71.68
2022-09-23T19:16:52.634Z,71.80
2022-09-23T19:19:20.840Z,71.90
2022-09-23T19:21:48.873Z,71.98
2022-09-23T19:24:20.118Z,72.10
2022-09-23T19:26:48.892Z,72.16
2022-09-23T19:29:19.621Z,72.28
2022-09-23T19:31:49.083Z,72.43
2022-09-23T19:34:24.887Z,72.48
2022-09-23T19:36:57.488Z,72.56
2022-09-23T19:39:30.586Z,72.68
2022-09-23T19:41:59.165Z,72.72
2022-09-23T19:44:27.864Z,72.82
2022-09-23T19:46:57.407Z,73.03
2022-09-23T19:49:26.380Z,73.09
2022-09-23T19:51:56.562Z,73.22
2022-09-23T19:54:27.478Z,73.29
2022-09-23T19:56:56.033Z,73.44
2022-09-23T19:59:26.611Z,73.53
2022-09-23T20:01:55.398Z,73.55
2022-09-23T20:04:46.536Z,73.77
2022-09-23T20:07:43.185Z,73.86
2022-09-23T20:10:21.867Z,74.11
2022-09-23T20:13:33.940Z,74.08
2022-09-23T20:16:10.543Z,74.12
2022-09-23T20:19:08.390Z,74.06
2022-09-23T20:22:19.692Z,74.14
2022-09-23T20:24:53.601Z,74.08
2022-09-23T20:27:29.022Z,74.09
2022-09-23T20:30:22.973Z,74.13
2022-09-23T20:33:16.978Z,74.05
2022-09-23T20:35:53.377Z,74.10
2022-09-23T20:39:01.822Z,74.13
2022-09-23T20:41:36.821Z,74.08
2022-09-23T20:44:30.037Z,74.15
2022-09-23T20:47:00.635Z,74.09
2022-09-23T20:49:36.105Z,73.95
2022-09-23T20:52:06.520Z,73.86
2022-09-23T20:54:35.810Z,73.90
2022-09-23T20:57:07.482Z,73.86
2022-09-23T20:59:36.245Z,73.73
2022-09-23T21:02:04.803Z,73.64
2022-09-23T21:04:34.983Z,73.64
2022-09-23T21:07:04.704Z,73.56
2022-09-23T21:09:35.215Z,73.52
2022-09-23T21:12:04.678Z,73.52
2022-09-23T21:14:52.946Z,73.60
2022-09-23T21:17:21.625Z,73.62
2022-09-23T21:19:58.218Z,73.79
2022-09-23T21:22:28.285Z,73.86
2022-09-23T21:25:27.857Z,73.86
2022-09-23T21:28:06.346Z,74.11
2022-09-23T21:30:40.039Z,74.28
2022-09-23T21:33:09.344Z,74.39
2022-09-23T21:36:05.290Z,74.46
2022-09-23T21:38:41.315Z,74.56
2022-09-23T21:41:13.318Z,74.60
2022-09-23T21:44:05.351Z,74.77
2022-09-23T21:46:42.763Z,74.75
2022-09-23T21:49:26.303Z,74.90
2022-09-23T21:52:00.863Z,74.90
2022-09-23T21:54:31.420Z,75.00
2022-09-23T21:57:01.073Z,75.14
2022-09-23T21:59:45.581Z,75.36
2022-09-23T22:02:15.760Z,75.42
2022-09-23T22:05:01.327Z,75.48
2022-09-23T22:07:29.444Z,75.63
2022-09-23T22:09:57.485Z,75.73
2022-09-23T22:12:25.467Z,75.75
2022-09-23T22:14:54.079Z,75.80
2022-09-23T22:17:23.092Z,75.78
2022-09-23T22:19:51.943Z,75.99
2022-09-23T22:22:20.720Z,75.95
2022-09-23T22:24:50.313Z,76.10
2022-09-23T22:27:29.108Z,76.21
2022-09-23T22:30:31.888Z,76.31
2022-09-23T22:33:03.776Z,76.61
2022-09-23T22:35:37.366Z,76.71
2022-09-23T22:38:06.273Z,76.73
2022-09-23T22:40:39.909Z,76.99
2022-09-23T22:43:08.643Z,77.09
2022-09-23T22:45:40.183Z,77.04
2022-09-23T22:48:14.203Z,76.92
2022-09-23T22:50:45.751Z,77.02
2022-09-23T22:53:14.453Z,77.08
2022-09-23T22:56:16.150Z,77.15
2022-09-23T22:58:45.402Z,77.01
2022-09-23T23:06:10.290Z,76.82
2022-09-23T23:50:10.937Z,76.21
